createdAt,value
2022-09-03T00:00:37.569Z,13.39
2022-09-03T00:05:48.660Z,13.27
2022-09-03T00:11:03.365Z,13.12
2022-09-03T00:16:10.461Z,13.07
2022-09-03T00:21:36.881Z,13.23
2022-09-03T00:26:43.047Z,12.95
2022-09-03T00:31:48.637Z,13.01
2022-09-03T00:36:50.430Z,12.88
2022-09-03T00:42:25.150Z,12.45
2022-09-03T00:47:35.842Z,12.50
2022-09-03T00:53:04.683Z,12.12
2022-09-03T00:58:24.816Z,11.79
2022-09-03T01:03:53.414Z,11.77
2022-09-03T01:09:26.720Z,11.61
2022-09-03T01:15:02.197Z,11.61
2022-09-03T01:20:23.178Z,11.64
2022-09-03T01:25:43.194Z,11.73
2022-09-03T01:30:49.328Z,11.48
2022-09-03T01:36:20.436Z,11.49
2022-09-03T01:41:52.906Z,11.59
2022-09-03T01:47:11.114Z,11.46
2022-09-03T01:52:39.960Z,11.28
2022-09-03T01:57:49.294Z,11.10
2022-09-03T02:02:52.454Z,11.21
2022-09-03T02:08:02.781Z,11.20
2022-09-03T02:13:12.372Z,11.15
2022-09-03T02:18:18.789Z,11.01
2022-09-03T02:23:24.711Z,10.82
2022-09-03T02:28:32.080Z,10.56
2022-09-03T02:33:39.658Z,10.55
2022-09-03T02:38:43.441Z,10.60
2022-09-03T02:43:49.582Z,10.52
2022-09-03T02:48:51.226Z,10.56
2022-09-03T02:53:52.849Z,10.30
2022-09-03T02:58:56.139Z,10.15
2022-09-03T03:03:58.057Z,10.01
2022-09-03T03:09:00.169Z,10.28
2022-09-03T03:14:01.855Z,10.27
2022-09-03T03:19:03.977Z,9.97
2022-09-03T03:24:06.039Z,9.88
2022-09-03T03:29:13.658Z,9.99
2022-09-03T03:34:15.296Z,9.90
2022-09-03T03:39:17.021Z,9.91
2022-09-03T03:44:20.314Z,9.68
2022-09-03T03:49:22.054Z,9.37
2022-09-03T03:54:23.732Z,9.61
2022-09-03T03:59:25.387Z,9.64
2022-09-03T04:04:27.026Z,9.68
2022-09-03T04:09:28.705Z,9.51
2022-09-03T04:14:30.399Z,9.28
2022-09-03T04:19:32.169Z,9.29
2022-09-03T04:24:33.826Z,9.27
2022-09-03T04:29:35.507Z,9.23
2022-09-03T04:34:37.163Z,9.09
2022-09-03T04:39:39.158Z,9.11
2022-09-03T04:44:41.268Z,9.13
2022-09-03T04:49:42.953Z,8.93
2022-09-03T04:54:44.840Z,9.28
2022-09-03T04:59:46.669Z,9.34
2022-09-03T05:04:48.333Z,9.24
2022-09-03T05:09:49.972Z,9.30
2022-09-03T05:14:51.618Z,9.42
2022-09-03T05:19:53.628Z,9.67
2022-09-03T05:24:56.356Z,9.79
2022-09-03T05:29:57.973Z,9.73
2022-09-03T05:34:59.648Z,9.91
2022-09-03T05:40:01.327Z,10.15
2022-09-03T05:45:03.553Z,10.63
2022-09-03T05:50:10.703Z,11.18
2022-09-03T05:55:13.584Z,11.85
2022-09-03T06:00:19.698Z,12.43
2022-09-03T06:05:21.423Z,14.51
2022-09-03T06:10:26.281Z,13.97
2022-09-03T06:15:31.000Z,13.71
2022-09-03T06:20:36.949Z,14.41
2022-09-03T06:25:39.492Z,13.72
2022-09-03T06:30:43.922Z,14.28
2022-09-03T06:35:46.981Z,15.06
2022-09-03T06:40:53.714Z,17.03
2022-09-03T06:46:03.811Z,18.39
2022-09-03T06:51:08.380Z,19.74
2022-09-03T06:56:12.262Z,18.53
2022-09-03T07:01:19.553Z,17.91
2022-09-03T07:06:21.852Z,17.05
2022-09-03T07:11:26.227Z,16.69
2022-09-03T07:16:30.561Z,17.00
2022-09-03T07:21:34.494Z,16.75
2022-09-03T07:26:39.378Z,19.70
2022-09-03T07:31:42.944Z,22.33
2022-09-03T07:36:48.930Z,21.90
2022-09-03T07:41:50.892Z,21.99
2022-09-03T07:46:52.966Z,25.92
2022-09-03T07:51:54.790Z,25.79
2022-09-03T07:56:56.895Z,30.02
2022-09-03T08:01:59.287Z,30.10
2022-09-03T08:07:00.971Z,26.56
2022-09-03T08:12:02.850Z,30.82
2022-09-03T08:17:04.742Z,27.90
2022-09-03T08:22:06.473Z,30.06
2022-09-03T08:27:08.767Z,31.16
2022-09-03T08:32:10.430Z,31.88
2022-09-03T08:37:15.911Z,32.36
2022-09-03T08:42:38.471Z,29.82
2022-09-03T08:47:48.613Z,30.67
2022-09-03T08:52:57.701Z,31.64
2022-09-03T08:58:19.340Z,29.20
2022-09-03T09:03:48.663Z,29.21
2022-09-03T09:08:58.348Z,28.45
2022-09-03T09:14:11.349Z,32.69
2022-09-03T09:19:34.617Z,30.46
2022-09-03T09:24:41.986Z,31.27
2022-09-03T09:29:48.448Z,31.47
2022-09-03T09:34:52.505Z,30.85
2022-09-03T09:39:57.798Z,35.59
2022-09-03T09:45:09.386Z,33.32
2022-09-03T09:50:26.205Z,31.19
2022-09-03T09:55:28.951Z,30.44
2022-09-03T10:00:34.261Z,26.84
2022-09-03T10:05:40.620Z,29.21
2022-09-03T10:10:49.115Z,30.99
2022-09-03T10:16:10.892Z,33.37
2022-09-03T10:21:17.624Z,28.87
2022-09-03T10:26:29.380Z,31.06
2022-09-03T10:32:16.743Z,31.87
2022-09-03T10:37:33.570Z,32.01
2022-09-03T10:42:44.576Z,31.31
2022-09-03T10:48:01.491Z,30.68
2022-09-03T10:53:14.038Z,28.98
2022-09-03T10:58:53.953Z,28.67
2022-09-03T11:04:17.831Z,30.49
2022-09-03T11:09:41.764Z,29.01
2022-09-03T11:14:53.998Z,31.79
2022-09-03T11:20:14.319Z,27.71
2022-09-03T11:25:19.448Z,29.92
2022-09-03T11:30:33.465Z,29.86
2022-09-03T11:35:35.141Z,28.94
2022-09-03T11:40:39.014Z,28.71
2022-09-03T11:45:40.821Z,28.98
2022-09-03T11:50:53.304Z,25.55
2022-09-03T11:55:56.243Z,26.58
2022-09-03T12:00:59.117Z,27.69
2022-09-03T12:06:21.857Z,27.15
2022-09-03T12:12:08.163Z,27.57
2022-09-03T12:17:23.107Z,28.69
2022-09-03T12:22:28.998Z,26.35
2022-09-03T12:27:33.803Z,27.04
2022-09-03T12:32:37.366Z,25.79
2022-09-03T12:48:40.486Z,29.01
2022-09-03T12:53:42.670Z,29.61
2022-09-03T12:59:12.090Z,27.53
2022-09-03T13:04:21.013Z,23.22
2022-09-03T13:09:30.063Z,25.51
2022-09-03T13:14:47.310Z,23.85
2022-09-03T13:20:16.273Z,25.40
2022-09-03T13:25:29.715Z,27.10
2022-09-03T13:31:07.263Z,26.54
2022-09-03T13:36:08.919Z,28.81
2022-09-03T13:41:21.104Z,27.81
2022-09-03T13:46:39.855Z,27.36
2022-09-03T13:51:52.830Z,27.08
2022-09-03T13:57:03.420Z,26.42
2022-09-03T14:02:05.083Z,26.25
2022-09-03T14:07:13.553Z,25.27
2022-09-03T14:12:23.902Z,24.68
2022-09-03T14:17:39.586Z,23.91
2022-09-03T14:23:03.151Z,23.50
2022-09-03T14:28:20.159Z,24.48
2022-09-03T14:33:38.568Z,23.29
2022-09-03T14:38:46.302Z,23.50
2022-09-03T14:44:06.487Z,23.95
2022-09-03T14:49:37.045Z,23.91
2022-09-03T14:55:04.747Z,24.28
2022-09-03T15:00:19.945Z,23.72
2022-09-03T15:05:43.262Z,23.84
2022-09-03T15:11:04.784Z,24.70
2022-09-03T15:16:30.020Z,24.44
2022-09-03T15:21:56.067Z,24.28
2022-09-03T15:27:12.507Z,24.49
2022-09-03T15:32:37.821Z,24.45
2022-09-03T15:37:46.779Z,23.91
2022-09-03T15:42:53.607Z,23.60
2022-09-03T15:48:01.761Z,23.38
2022-09-03T15:53:22.556Z,23.32
2022-09-03T15:58:38.202Z,23.13
2022-09-03T16:03:59.699Z,23.27
2022-09-03T16:09:22.660Z,23.33
2022-09-03T16:15:02.686Z,23.26
2022-09-03T16:20:10.415Z,22.91
2022-09-03T16:25:23.249Z,22.81
2022-09-03T16:30:45.912Z,23.03
2022-09-03T16:36:08.989Z,22.85
2022-09-03T16:41:26.900Z,22.98
2022-09-03T16:46:50.042Z,22.61
2022-09-03T16:52:06.160Z,22.19
2022-09-03T16:57:46.538Z,22.11
2022-09-03T17:03:06.324Z,21.66
2022-09-03T17:08:18.379Z,21.14
2022-09-03T17:13:52.182Z,20.98
2022-09-03T17:19:22.292Z,20.27
2022-09-03T17:24:36.662Z,20.17
2022-09-03T17:29:44.294Z,19.87
2022-09-03T17:35:13.089Z,19.39
2022-09-03T17:40:36.676Z,19.15
2022-09-03T17:45:56.326Z,18.78
2022-09-03T17:51:17.535Z,18.70
2022-09-03T17:56:30.180Z,18.29
2022-09-03T18:01:37.665Z,18.28
2022-09-03T18:06:42.073Z,18.16
2022-09-03T18:12:09.566Z,18.28
2022-09-03T18:17:19.503Z,17.97
2022-09-03T18:22:44.775Z,17.64
2022-09-03T18:28:19.761Z,17.49
2022-09-03T18:33:44.256Z,17.29
2022-09-03T18:39:04.596Z,17.26
2022-09-03T18:44:47.033Z,17.24
2022-09-03T18:50:37.814Z,17.03
2022-09-03T18:56:14.169Z,16.67
2022-09-03T19:01:52.239Z,16.89
2022-09-03T19:07:23.877Z,16.77
2022-09-03T19:12:59.789Z,16.74
2022-09-03T19:18:38.854Z,16.27
2022-09-03T19:23:58.997Z,16.31
2022-09-03T19:29:29.172Z,16.29
2022-09-03T19:35:14.909Z,16.22
2022-09-03T19:40:52.623Z,16.09
2022-09-03T19:46:16.144Z,16.18
2022-09-03T19:51:41.397Z,16.14
2022-09-03T19:57:02.740Z,15.93
2022-09-03T20:02:23.471Z,15.74
2022-09-03T20:07:43.893Z,15.67
2022-09-03T20:12:59.263Z,15.65
2022-09-03T20:18:17.543Z,15.35
2022-09-03T20:23:30.486Z,15.45
2022-09-03T20:28:55.448Z,15.78
2022-09-03T20:34:13.900Z,15.81
2022-09-03T20:39:36.281Z,15.64
2022-09-03T20:44:54.263Z,15.69
2022-09-03T20:50:20.045Z,15.58
2022-09-03T20:55:29.574Z,15.56
2022-09-03T21:00:50.214Z,15.64
2022-09-03T21:06:09.506Z,15.66
2022-09-03T21:11:16.685Z,15.45
2022-09-03T21:16:39.122Z,15.56
2022-09-03T21:21:52.679Z,15.70
2022-09-03T21:27:01.655Z,15.33
2022-09-03T21:32:10.145Z,15.47
2022-09-03T21:37:13.578Z,15.45
2022-09-03T21:42:30.945Z,15.36
2022-09-03T21:47:39.638Z,15.36
2022-09-03T21:53:15.976Z,15.01
2022-09-03T21:58:24.140Z,14.74
2022-09-03T22:03:25.930Z,14.52
2022-09-03T22:08:49.262Z,14.66
2022-09-03T22:14:07.532Z,14.93
2022-09-03T22:19:09.207Z,15.20
2022-09-03T22:24:42.732Z,15.03
2022-09-03T22:29:56.770Z,15.07
2022-09-03T22:34:58.348Z,14.95
2022-09-03T22:40:18.277Z,14.44
2022-09-03T22:45:40.469Z,14.84
2022-09-03T22:50:44.894Z,15.07
2022-09-03T22:55:58.634Z,14.83
2022-09-03T23:01:22.028Z,14.79
2022-09-03T23:06:33.004Z,14.74
2022-09-03T23:11:45.401Z,15.15
2022-09-03T23:17:14.695Z,15.21
2022-09-03T23:22:24.502Z,14.92
2022-09-03T23:27:53.639Z,15.23
2022-09-03T23:32:58.732Z,15.29
2022-09-03T23:38:12.282Z,15.14
2022-09-03T23:43:27.438Z,15.11
2022-09-03T23:48:47.605Z,15.22
2022-09-03T23:54:23.946Z,15.26
2022-09-03T23:59:44.278Z,15.05
